Time;durP1;ratioP1;P1;durP2;ratioP2;P2;SDS_P1;SDS_P2;PMS_P1;PMS_P2;Temp;Humidity;BMP_temperature;BMP_pressure;BME280_temperature;BME280_humidity;BME280_pressure;Samples;Min_cycle;Max_cycle;Signal;HPM_P1;HPM_P2
2021/09/04 00:00:00;;;;;;;20.65;13.05;;;;;;;18.47;55.48;100217.84;5987295;23;20035;-90
2021/09/04 00:02:27;;;;;;;20.17;13.07;;;;;;;18.45;55.63;100215.28;5986716;23;20034;-90
2021/09/04 00:04:53;;;;;;;18.90;11.98;;;;;;;18.45;55.52;100225.09;6011436;23;20080;-91
2021/09/04 00:07:20;;;;;;;19.05;12.23;;;;;;;18.44;55.37;100218.06;6011228;23;20024;-90
2021/09/04 00:09:47;;;;;;;18.70;12.55;;;;;;;18.41;55.66;100203.19;5986336;23;20031;-91
2021/09/04 00:12:13;;;;;;;20.40;12.90;;;;;;;18.40;55.44;100216.63;5986281;23;20024;-89
2021/09/04 00:14:40;;;;;;;19.33;13.60;;;;;;;18.38;55.65;100208.75;6011096;23;20039;-91
2021/09/04 00:17:07;;;;;;;20.42;12.80;;;;;;;18.38;55.48;100197.28;5986524;23;20031;-91
2021/09/04 00:19:33;;;;;;;20.55;13.30;;;;;;;18.35;55.80;100201.88;6011845;23;20023;-91
2021/09/04 00:22:00;;;;;;;24.33;14.25;;;;;;;18.32;55.68;100206.63;5986505;23;20229;-90
2021/09/04 00:24:26;;;;;;;23.90;14.10;;;;;;;18.29;55.94;100199.72;5987202;23;20348;-91
2021/09/04 00:26:53;;;;;;;20.50;13.80;;;;;;;18.27;55.85;100199.00;6011178;23;20024;-91
2021/09/04 00:29:20;;;;;;;20.42;12.75;;;;;;;18.25;56.23;100203.63;5986701;23;20353;-90
2021/09/04 00:31:48;;;;;;;18.63;13.25;;;;;;;18.24;56.11;100201.91;5986021;23;20487;-91
2021/09/04 00:34:15;;;;;;;22.08;13.93;;;;;;;18.21;56.52;100208.34;5987383;23;20102;-91
2021/09/04 00:36:42;;;;;;;17.20;12.90;;;;;;;18.20;56.67;100211.13;5987367;23;20405;-90
2021/09/04 00:39:08;;;;;;;20.83;12.52;;;;;;;18.20;56.63;100197.81;6011400;23;20020;-91
2021/09/04 00:41:35;;;;;;;18.10;13.02;;;;;;;18.20;56.72;100205.78;6011222;23;20024;-91
2021/09/04 00:44:05;;;;;;;19.85;13.07;;;;;;;18.21;56.51;100204.84;6013190;23;20034;-91
2021/09/04 00:46:32;;;;;;;19.20;12.85;;;;;;;18.19;56.97;100201.44;5987686;23;20034;-92
2021/09/04 00:48:59;;;;;;;18.90;12.60;;;;;;;18.20;56.69;100206.66;6012419;23;20035;-91
2021/09/04 00:51:26;;;;;;;18.80;12.70;;;;;;;18.19;56.45;100202.31;5989988;23;20023;-88
2021/09/04 00:53:52;;;;;;;20.02;13.05;;;;;;;18.19;56.66;100206.78;5987248;23;20024;-90
2021/09/04 00:56:19;;;;;;;19.20;11.95;;;;;;;18.18;56.83;100197.09;5986495;23;20350;-90
2021/09/04 00:58:46;;;;;;;18.70;12.05;;;;;;;18.20;56.60;100195.13;5986593;23;20080;-91
2021/09/04 01:01:13;;;;;;;16.55;12.10;;;;;;;18.19;56.86;100199.63;6010521;23;20027;-90
2021/09/04 01:03:40;;;;;;;19.30;13.32;;;;;;;18.19;56.69;100194.31;6011234;23;20032;-91
2021/09/04 01:06:07;;;;;;;18.42;12.25;;;;;;;18.21;57.12;100192.34;5986451;23;20028;-89
2021/09/04 01:08:34;;;;;;;21.52;12.23;;;;;;;18.22;56.89;100193.22;5987045;23;20028;-91
2021/09/04 01:11:00;;;;;;;18.27;12.25;;;;;;;18.24;57.26;100196.56;5986859;23;20034;-90
2021/09/04 01:13:27;;;;;;;17.27;12.93;;;;;;;18.25;57.25;100190.31;6011376;23;20020;-91
2021/09/04 01:15:53;;;;;;;20.35;13.45;;;;;;;18.28;56.91;100191.84;6012406;23;20027;-91
2021/09/04 01:18:23;;;;;;;21.50;13.05;;;;;;;18.27;57.48;100191.00;5988326;23;20047;-90
2021/09/04 01:20:50;;;;;;;18.75;13.00;;;;;;;18.27;57.08;100183.00;5988070;23;20034;-89
2021/09/04 01:23:17;;;;;;;18.75;12.93;;;;;;;18.29;56.84;100170.41;6013702;23;20027;-91
2021/09/04 01:25:52;;;;;;;20.95;12.55;;;;;;;18.26;57.55;100178.66;6014076;23;20034;-90
2021/09/04 01:28:18;;;;;;;17.67;12.90;;;;;;;18.27;56.74;100175.00;5987970;23;20392;-91
2021/09/04 01:30:49;;;;;;;20.80;12.63;;;;;;;18.25;57.78;100178.78;5988732;23;20409;-90
2021/09/04 01:33:16;;;;;;;18.25;12.63;;;;;;;18.23;56.86;100177.09;5989862;23;20079;-91
2021/09/04 01:35:42;;;;;;;18.52;12.73;;;;;;;18.22;57.07;100172.75;5988068;23;20016;-91
2021/09/04 01:38:09;;;;;;;22.92;12.27;;;;;;;18.21;57.03;100170.22;5988341;23;20341;-89
2021/09/04 01:40:36;;;;;;;21.48;12.52;;;;;;;18.22;57.27;100177.22;6014209;23;20046;-90
2021/09/04 01:43:02;;;;;;;20.17;12.63;;;;;;;18.22;57.11;100174.56;6013168;23;20486;-90
2021/09/04 01:45:29;;;;;;;18.85;11.98;;;;;;;18.20;57.05;100168.50;6013658;23;20389;-90
2021/09/04 01:47:55;;;;;;;16.88;11.77;;;;;;;18.19;57.18;100165.00;5989012;23;20031;-90
2021/09/04 01:50:22;;;;;;;18.33;12.15;;;;;;;18.18;56.99;100159.78;5987833;23;20031;-90
2021/09/04 01:52:49;;;;;;;19.27;13.13;;;;;;;18.17;57.40;100174.09;5988209;23;20348;-90
2021/09/04 01:55:18;;;;;;;19.70;12.45;;;;;;;18.16;57.79;100164.41;5988366;23;20034;-91
2021/09/04 01:57:45;;;;;;;19.48;12.75;;;;;;;18.17;57.20;100166.09;5991289;23;20030;-90
2021/09/04 02:00:14;;;;;;;23.38;12.77;;;;;;;18.15;57.43;100165.38;5988130;23;20035;-90
2021/09/04 02:02:42;;;;;;;15.48;12.20;;;;;;;18.17;57.58;100174.09;5989174;23;20027;-90
2021/09/04 02:05:11;;;;;;;17.88;12.70;;;;;;;18.14;57.18;100172.53;5987642;23;20102;-90
2021/09/04 02:07:37;;;;;;;17.73;12.60;;;;;;;18.14;57.49;100169.88;5987469;23;20031;-91
2021/09/04 02:10:06;;;;;;;19.17;13.38;;;;;;;18.14;57.43;100171.69;5987482;23;20460;-90
2021/09/04 02:12:32;;;;;;;18.88;12.30;;;;;;;18.13;57.52;100173.47;6013036;23;20023;-91
2021/09/04 02:14:59;;;;;;;18.15;12.48;;;;;;;18.12;57.30;100170.97;5988374;23;20024;-91
2021/09/04 02:17:27;;;;;;;16.33;12.48;;;;;;;18.12;57.63;100168.31;5988388;23;20472;-90
2021/09/04 02:19:53;;;;;;;21.52;13.50;;;;;;;18.12;57.67;100170.97;5987780;23;20028;-91
2021/09/04 02:22:20;;;;;;;19.23;12.38;;;;;;;18.12;57.61;100166.47;5987822;23;20414;-91
2021/09/04 02:24:46;;;;;;;18.88;12.38;;;;;;;18.13;57.78;100164.66;5988656;23;20683;-90
2021/09/04 02:27:13;;;;;;;21.60;12.98;;;;;;;18.13;57.75;100165.50;5987287;23;20034;-91
2021/09/04 02:29:39;;;;;;;16.23;11.95;;;;;;;18.12;57.69;100157.66;5988920;23;20051;-90
2021/09/04 02:32:06;;;;;;;20.15;12.20;;;;;;;18.11;57.52;100159.47;5988339;23;20103;-91
2021/09/04 02:34:33;;;;;;;20.73;12.82;;;;;;;18.12;57.40;100165.66;5987376;23;20020;-90
2021/09/04 02:37:00;;;;;;;15.90;12.63;;;;;;;18.09;57.49;100167.56;6012927;23;20043;-91
2021/09/04 02:39:26;;;;;;;16.58;12.57;;;;;;;18.07;57.27;100161.50;5999590;23;20027;-91
2021/09/04 02:41:53;;;;;;;19.70;12.85;;;;;;;18.04;57.60;100156.44;6015982;23;20031;-89
2021/09/04 02:44:20;;;;;;;16.05;11.60;;;;;;;18.03;57.36;100162.72;6014779;23;20479;-91
2021/09/04 02:46:46;;;;;;;23.67;14.45;;;;;;;18.03;57.76;100167.19;6015504;23;20019;-90
2021/09/04 02:49:13;;;;;;;15.35;11.88;;;;;;;18.02;57.55;100160.19;6015552;23;20060;-90
2021/09/04 02:51:41;;;;;;;19.45;12.82;;;;;;;18.03;57.58;100161.88;6015639;23;20038;-91
2021/09/04 02:54:09;;;;;;;19.30;13.38;;;;;;;18.02;57.36;100154.88;6014595;23;20027;-90
2021/09/04 02:56:37;;;;;;;21.83;13.90;;;;;;;18.00;57.53;100151.47;6040511;23;20027;-91
2021/09/04 02:59:03;;;;;;;19.58;13.70;;;;;;;17.98;57.66;100159.56;6016824;23;20082;-92
2021/09/04 03:01:30;;;;;;;21.88;13.63;;;;;;;17.96;57.61;100159.72;6014821;23;20019;-88
2021/09/04 03:03:57;;;;;;;21.58;14.40;;;;;;;17.93;57.54;100151.97;6039935;23;20027;-90
2021/09/04 03:06:23;;;;;;;19.05;13.10;;;;;;;17.92;57.66;100162.75;6015537;23;20027;-90
2021/09/04 03:08:53;;;;;;;16.65;13.50;;;;;;;17.89;58.13;100157.66;6016452;23;20027;-90
2021/09/04 03:11:22;;;;;;;19.52;13.45;;;;;;;17.89;58.00;100177.16;6015362;23;20430;-90
2021/09/04 03:13:50;;;;;;;19.27;13.23;;;;;;;17.88;57.75;100158.66;6015514;23;20024;-90
2021/09/04 03:16:16;;;;;;;19.77;13.80;;;;;;;17.88;58.08;100158.66;6015602;23;20023;-90
2021/09/04 03:18:43;;;;;;;18.88;13.23;;;;;;;17.86;57.97;100158.78;6040926;23;20027;-89
2021/09/04 03:21:11;;;;;;;18.92;12.88;;;;;;;17.86;57.94;100155.28;6040039;23;20027;-90
2021/09/04 03:23:37;;;;;;;17.70;13.13;;;;;;;17.87;58.18;100155.13;6039993;23;20027;-89
2021/09/04 03:26:04;;;;;;;16.38;13.38;;;;;;;17.88;58.00;100148.00;6014566;23;20019;-90
2021/09/04 03:28:31;;;;;;;19.13;13.45;;;;;;;17.87;57.66;100151.63;6014728;23;20038;-89
2021/09/04 03:30:57;;;;;;;17.13;12.77;;;;;;;17.84;57.99;100148.25;6040430;23;20027;-90
2021/09/04 03:33:24;;;;;;;18.25;13.00;;;;;;;17.83;58.03;100146.56;6039989;23;20083;-90
2021/09/04 03:35:50;;;;;;;18.05;13.60;;;;;;;17.83;57.77;100143.06;6039625;23;20043;-91
2021/09/04 03:38:17;;;;;;;17.23;12.38;;;;;;;17.82;57.94;100146.69;6015530;23;20035;-90
2021/09/04 03:40:44;;;;;;;19.25;12.32;;;;;;;17.82;57.80;100146.69;6014816;23;20034;-90
2021/09/04 03:43:10;;;;;;;16.77;11.77;;;;;;;17.82;57.80;100154.66;6014792;23;20027;-90
2021/09/04 03:45:37;;;;;;;16.90;12.73;;;;;;;17.81;57.94;100158.31;6039121;23;20019;-91
2021/09/04 03:48:04;;;;;;;17.35;11.85;;;;;;;17.80;57.95;100148.63;6040119;23;20029;-91
2021/09/04 03:50:31;;;;;;;16.13;11.18;;;;;;;17.79;58.00;100153.09;6014576;23;20019;-89
2021/09/04 03:52:57;;;;;;;18.92;12.63;;;;;;;17.79;57.95;100155.75;6014740;23;20027;-89
2021/09/04 03:55:24;;;;;;;16.08;11.90;;;;;;;17.80;58.28;100153.97;6014457;23;20019;-90
2021/09/04 03:57:51;;;;;;;15.43;12.02;;;;;;;17.79;57.92;100147.78;6014554;23;20027;-89
2021/09/04 04:00:18;;;;;;;14.10;10.90;;;;;;;17.80;58.08;100148.63;6041280;23;20035;-91
2021/09/04 04:02:45;;;;;;;15.73;11.55;;;;;;;17.80;57.97;100144.13;6014861;23;20027;-91
2021/09/04 04:05:12;;;;;;;18.10;11.43;;;;;;;17.80;57.80;100141.47;6039359;23;20027;-90
2021/09/04 04:07:39;;;;;;;13.13;10.52;;;;;;;17.80;57.82;100145.97;6039948;23;20050;-90
2021/09/04 04:10:07;;;;;;;14.73;10.75;;;;;;;17.79;57.79;100155.75;6040021;23;20028;-91
2021/09/04 04:12:34;;;;;;;14.50;10.02;;;;;;;17.79;57.55;100146.94;6039997;23;20033;-89
2021/09/04 04:15:00;;;;;;;13.95;10.02;;;;;;;17.78;57.67;100153.22;6039422;23;20030;-89
2021/09/04 04:17:30;;;;;;;16.33;9.90;;;;;;;17.77;57.07;100160.38;6014696;23;20034;-89
2021/09/04 04:19:57;;;;;;;13.20;9.77;;;;;;;17.74;57.28;100159.75;6014258;23;20023;-90
2021/09/04 04:22:23;;;;;;;13.13;8.63;;;;;;;17.71;56.84;100153.72;6014686;23;20033;-90
2021/09/04 04:24:50;;;;;;;12.90;8.70;;;;;;;17.70;57.16;100156.50;6039732;23;20464;-92
2021/09/04 04:27:16;;;;;;;14.02;9.93;;;;;;;17.67;57.08;100152.28;6015274;23;20026;-90
2021/09/04 04:29:43;;;;;;;15.27;9.60;;;;;;;17.66;57.03;100155.06;6016336;23;20034;-92
2021/09/04 04:32:10;;;;;;;16.42;9.77;;;;;;;17.64;56.97;100157.03;6040224;23;20535;-90
2021/09/04 04:34:36;;;;;;;13.40;10.05;;;;;;;17.60;56.83;100163.56;6014859;23;20023;-91
2021/09/04 04:37:03;;;;;;;15.60;10.02;;;;;;;17.56;56.87;100166.47;6014763;23;20031;-90
2021/09/04 04:39:30;;;;;;;13.98;10.70;;;;;;;17.54;56.98;100163.06;6026342;23;20473;-91
2021/09/04 04:41:57;;;;;;;17.33;10.20;;;;;;;17.52;57.06;100162.34;5986783;23;20031;-90
2021/09/04 04:44:24;;;;;;;15.95;11.30;;;;;;;17.51;56.92;100163.31;6010972;23;20483;-91
2021/09/04 04:46:50;;;;;;;15.65;11.65;;;;;;;17.50;57.09;100166.09;5986635;23;20034;-91
2021/09/04 04:49:17;;;;;;;15.88;11.27;;;;;;;17.48;57.60;100160.91;5988104;23;20027;-90
2021/09/04 04:51:44;;;;;;;17.48;11.50;;;;;;;17.49;57.49;100170.56;5988075;23;20027;-91
2021/09/04 04:54:11;;;;;;;15.25;11.18;;;;;;;17.50;57.40;100174.94;5987954;23;20491;-89
2021/09/04 04:56:37;;;;;;;16.98;11.73;;;;;;;17.50;57.20;100177.59;5988037;23;20460;-89
2021/09/04 04:59:04;;;;;;;16.10;12.00;;;;;;;17.50;57.26;100172.28;5987972;23;20020;-89
2021/09/04 05:01:30;;;;;;;15.65;11.68;;;;;;;17.50;57.20;100172.28;6012634;23;20394;-91
2021/09/04 05:03:58;;;;;;;19.05;12.52;;;;;;;17.50;57.29;100176.75;6012643;23;20333;-90
2021/09/04 05:06:24;;;;;;;19.17;13.20;;;;;;;17.50;57.52;100176.75;5988056;23;20020;-89
2021/09/04 05:08:51;;;;;;;19.67;13.32;;;;;;;17.49;57.58;100177.72;6012612;23;20024;-89
2021/09/04 05:11:17;;;;;;;17.88;13.10;;;;;;;17.48;57.53;100179.53;5987895;23;20352;-89
2021/09/04 05:13:44;;;;;;;17.83;12.23;;;;;;;17.49;57.40;100181.22;5988156;23;20521;-89
2021/09/04 05:16:11;;;;;;;17.13;12.82;;;;;;;17.49;57.30;100175.91;5988524;23;20031;-90
2021/09/04 05:18:38;;;;;;;17.27;12.90;;;;;;;17.48;57.32;100182.19;5988199;23;20103;-90
2021/09/04 05:21:04;;;;;;;18.30;14.05;;;;;;;17.46;57.32;100176.16;5988063;23;20464;-90
2021/09/04 05:23:31;;;;;;;17.75;13.18;;;;;;;17.46;57.65;100181.47;5991204;23;20019;-90
2021/09/04 05:25:57;;;;;;;15.48;12.57;;;;;;;17.48;57.41;100186.66;6012746;23;20030;-90
2021/09/04 05:28:24;;;;;;;19.17;13.52;;;;;;;17.48;57.34;100179.53;5988421;23;20032;-91
2021/09/04 05:30:51;;;;;;;18.10;12.88;;;;;;;17.51;57.52;100186.41;5988505;23;20024;-90
2021/09/04 05:33:18;;;;;;;17.17;12.05;;;;;;;17.52;57.45;100186.31;5988104;23;20472;-90
2021/09/04 05:35:44;;;;;;;18.52;12.35;;;;;;;17.52;57.35;100188.97;5987999;23;20026;-88
2021/09/04 05:38:11;;;;;;;20.60;13.18;;;;;;;17.54;57.44;100184.34;6012925;23;20035;-89
2021/09/04 05:40:38;;;;;;;21.95;13.25;;;;;;;17.56;57.41;100187.75;6011956;23;20027;-88
2021/09/04 05:43:04;;;;;;;16.15;12.18;;;;;;;17.58;57.38;100187.63;6011946;23;20028;-90
2021/09/04 05:45:32;;;;;;;19.42;12.25;;;;;;;17.60;57.43;100190.19;5987667;23;20072;-89
2021/09/04 05:47:59;;;;;;;16.60;12.32;;;;;;;17.62;57.17;100193.56;6012524;23;20079;-88
2021/09/04 05:50:25;;;;;;;15.48;12.43;;;;;;;17.63;57.19;100187.25;6012726;23;20035;-88
2021/09/04 05:52:52;;;;;;;18.40;11.75;;;;;;;17.62;57.15;100185.56;5987496;23;20460;-89
2021/09/04 05:55:19;;;;;;;15.30;11.48;;;;;;;17.62;56.94;100180.25;6012130;23;20027;-87
2021/09/04 05:57:45;;;;;;;17.27;11.98;;;;;;;17.62;56.89;100185.56;6012139;23;20027;-89
2021/09/04 06:00:12;;;;;;;18.42;12.20;;;;;;;17.60;57.27;100195.50;5987313;23;20027;-89
2021/09/04 06:02:40;;;;;;;18.70;12.15;;;;;;;17.60;57.06;100195.50;5987214;23;20080;-89
2021/09/04 06:05:08;;;;;;;18.15;11.43;;;;;;;17.60;57.09;100200.81;6012492;23;20020;-89
2021/09/04 06:07:35;;;;;;;14.80;11.38;;;;;;;17.61;57.14;100200.72;6012197;23;20027;-89
2021/09/04 06:10:02;;;;;;;17.52;11.10;;;;;;;17.64;56.86;100199.63;6012217;23;20028;-90
2021/09/04 06:12:28;;;;;;;18.50;10.75;;;;;;;17.64;56.56;100197.78;5986990;23;20043;-89
2021/09/04 06:14:55;;;;;;;13.73;10.48;;;;;;;17.67;56.86;100199.34;5987210;23;20488;-89
2021/09/04 06:17:21;;;;;;;15.02;10.88;;;;;;;17.68;56.85;100203.72;6012104;23;20030;-89
2021/09/04 06:19:48;;;;;;;14.20;9.68;;;;;;;17.70;56.81;100207.09;6012126;23;20024;-88
2021/09/04 06:22:15;;;;;;;14.15;10.20;;;;;;;17.72;56.91;100210.50;6011816;23;20024;-89
2021/09/04 06:24:41;;;;;;;17.48;10.68;;;;;;;17.73;56.63;100220.16;5987087;23;20077;-89
2021/09/04 06:27:08;;;;;;;18.35;10.15;;;;;;;17.77;56.65;100210.13;6012386;23;20072;-89
2021/09/04 06:29:35;;;;;;;15.35;9.80;;;;;;;17.78;56.63;100207.31;5987292;23;20024;-89
2021/09/04 06:32:02;;;;;;;12.32;9.60;;;;;;;17.78;56.58;100212.66;5986678;23;20476;-88
2021/09/04 06:34:29;;;;;;;15.50;9.88;;;;;;;17.78;56.43;100212.66;5987187;23;20031;-88
2021/09/04 06:36:55;;;;;;;14.05;9.68;;;;;;;17.80;56.58;100215.19;5987043;23;20080;-89
2021/09/04 06:39:22;;;;;;;12.68;9.98;;;;;;;17.81;56.45;100216.88;5986947;23;20031;-88
2021/09/04 06:41:49;;;;;;;12.35;9.02;;;;;;;17.81;56.51;100220.41;6011732;23;20469;-89
2021/09/04 06:44:15;;;;;;;13.68;9.90;;;;;;;17.82;56.72;100214.09;5987030;23;20027;-90
2021/09/04 06:46:42;;;;;;;13.98;9.70;;;;;;;17.84;57.12;100217.47;5987345;23;20030;-89
2021/09/04 06:49:10;;;;;;;13.80;9.55;;;;;;;17.88;57.05;100211.91;6011725;23;20027;-90
2021/09/04 06:51:37;;;;;;;12.85;9.77;;;;;;;17.93;56.86;100204.38;5987003;23;20023;-89
2021/09/04 06:54:03;;;;;;;14.63;9.00;;;;;;;17.97;57.00;100208.50;5986966;23;20088;-90
2021/09/04 06:56:30;;;;;;;13.73;9.57;;;;;;;18.02;57.06;100213.47;5987015;23;20024;-89
2021/09/04 06:58:56;;;;;;;14.13;8.52;;;;;;;18.05;56.61;100214.06;5987011;23;20024;-88
2021/09/04 07:01:23;;;;;;;33.50;12.82;;;;;;;18.08;57.03;100213.84;5986959;23;20040;-90
2021/09/04 07:03:50;;;;;;;14.25;8.90;;;;;;;18.13;57.12;100217.94;5987216;23;20034;-90
2021/09/04 07:06:17;;;;;;;15.80;9.85;;;;;;;18.16;57.21;100215.88;6012039;23;20030;-90
2021/09/04 07:08:43;;;;;;;18.25;10.70;;;;;;;18.19;57.08;100214.78;5987073;23;20036;-88
2021/09/04 07:11:10;;;;;;;12.95;9.27;;;;;;;18.23;56.62;100224.19;5986599;23;20046;-88
2021/09/04 07:13:38;;;;;;;14.93;9.27;;;;;;;18.25;56.61;100208.09;5986645;23;20699;-89
2021/09/04 07:16:05;;;;;;;12.88;8.68;;;;;;;18.27;56.08;100214.97;5986601;23;20024;-87
2021/09/04 07:18:32;;;;;;;10.77;8.25;;;;;;;18.30;56.37;100216.53;5987243;23;20023;-87
2021/09/04 07:20:58;;;;;;;11.68;9.20;;;;;;;18.31;56.29;100211.09;6011348;23;20083;-88
2021/09/04 07:23:25;;;;;;;12.02;8.50;;;;;;;18.33;56.23;100213.63;5986243;23;20035;-90
2021/09/04 07:25:52;;;;;;;14.18;8.80;;;;;;;18.34;55.79;100220.66;5986699;23;20026;-90
2021/09/04 07:28:18;;;;;;;13.10;8.88;;;;;;;18.33;55.72;100221.63;5986973;23;20031;-87
2021/09/04 07:30:45;;;;;;;14.50;9.43;;;;;;;18.34;56.08;100223.31;5986777;23;20360;-89
2021/09/04 07:33:11;;;;;;;12.48;8.77;;;;;;;18.34;56.04;100218.84;5986721;23;20024;-90
2021/09/04 07:35:38;;;;;;;13.65;8.52;;;;;;;18.37;56.14;100223.06;5986901;23;20024;-88
2021/09/04 07:38:05;;;;;;;10.10;8.15;;;;;;;18.40;55.80;100222.81;5986660;23;20031;-88
2021/09/04 07:40:31;;;;;;;15.38;8.45;;;;;;;18.45;56.07;100233.09;6011080;23;20086;-89
2021/09/04 07:42:58;;;;;;;14.93;8.80;;;;;;;18.48;56.09;100228.38;6014873;23;20083;-89
2021/09/04 07:45:25;;;;;;;14.23;7.38;;;;;;;18.54;56.41;100235.00;6039023;23;20027;-88
2021/09/04 07:47:52;;;;;;;12.55;7.90;;;;;;;18.60;56.04;100231.81;6039485;23;20019;-89
2021/09/04 07:50:18;;;;;;;11.48;8.15;;;;;;;18.66;56.37;100241.13;6039726;23;20038;-87
2021/09/04 07:52:45;;;;;;;15.02;8.40;;;;;;;18.71;56.18;100236.25;6014317;23;20043;-88
2021/09/04 07:55:12;;;;;;;13.00;7.85;;;;;;;18.77;56.14;100237.56;6039786;23;20046;-89
2021/09/04 07:57:38;;;;;;;13.65;7.47;;;;;;;18.83;56.21;100242.38;6014820;23;20030;-89
2021/09/04 08:00:06;;;;;;;19.00;7.85;;;;;;;18.87;56.17;100243.81;6014526;23;20023;-90
2021/09/04 08:02:34;;;;;;;13.57;7.35;;;;;;;18.92;56.28;100239.91;6015046;23;20034;-89
2021/09/04 08:05:01;;;;;;;10.35;7.50;;;;;;;18.98;56.15;100239.38;6038999;23;20035;-89
2021/09/04 08:07:27;;;;;;;17.05;8.27;;;;;;;19.02;55.77;100243.47;6039288;23;20035;-90
2021/09/04 08:09:54;;;;;;;13.35;7.93;;;;;;;19.07;55.50;100245.78;6014211;23;20367;-88
2021/09/04 08:12:22;;;;;;;11.73;8.13;;;;;;;19.10;55.61;100243.69;6039354;23;20401;-89
2021/09/04 08:14:48;;;;;;;13.13;8.45;;;;;;;19.14;55.79;100245.13;6039208;23;20027;-89
2021/09/04 08:17:15;;;;;;;12.48;8.48;;;;;;;19.20;55.28;100243.75;6039122;23;20027;-89
2021/09/04 08:19:42;;;;;;;13.45;9.15;;;;;;;19.24;55.46;100236.31;6039608;23;20043;-89
2021/09/04 08:22:09;;;;;;;17.23;9.52;;;;;;;19.30;55.56;100241.16;6014398;23;20034;-89
2021/09/04 08:24:35;;;;;;;12.30;8.93;;;;;;;19.35;55.41;100240.72;6013970;23;20468;-90
2021/09/04 08:27:03;;;;;;;10.68;8.48;;;;;;;19.39;54.80;100243.03;6014202;23;20039;-90
2021/09/04 08:29:29;;;;;;;13.02;8.93;;;;;;;19.44;54.43;100244.44;6014321;23;20483;-88
2021/09/04 08:31:56;;;;;;;14.15;8.93;;;;;;;19.45;54.56;100243.47;6039115;23;20023;-89
2021/09/04 08:34:22;;;;;;;10.68;8.43;;;;;;;19.48;54.51;100249.38;6014284;23;20031;-90
2021/09/04 08:36:50;;;;;;;11.93;8.35;;;;;;;19.50;54.44;100249.25;6038959;23;20023;-87
2021/09/04 08:39:17;;;;;;;20.45;9.25;;;;;;;19.55;54.24;100246.19;6028795;23;20024;-89
2021/09/04 08:41:44;;;;;;;13.18;8.80;;;;;;;19.59;54.55;100245.75;6010627;23;20039;-88
2021/09/04 08:44:11;;;;;;;12.85;9.13;;;;;;;19.64;54.66;100248.91;6010778;23;20031;-88
2021/09/04 08:46:38;;;;;;;13.43;9.18;;;;;;;19.69;54.30;100253.81;6010548;23;20023;-87
2021/09/04 08:49:07;;;;;;;12.32;9.07;;;;;;;19.73;54.15;100249.06;5986256;23;20035;-90
2021/09/04 08:51:34;;;;;;;14.23;9.73;;;;;;;19.79;53.83;100257.38;6010550;23;20031;-87
2021/09/04 08:54:02;;;;;;;15.82;9.48;;;;;;;19.87;53.94;100259.38;5986235;23;20038;-89
2021/09/04 08:56:29;;;;;;;10.82;9.18;;;;;;;19.96;53.92;100259.53;6010937;23;20023;-89
2021/09/04 08:58:55;;;;;;;10.93;8.73;;;;;;;20.02;53.94;100272.38;6011049;23;20088;-88
2021/09/04 09:01:25;;;;;;;11.35;8.52;;;;;;;20.07;53.64;100264.78;6010797;23;20035;-87
2021/09/04 09:03:53;;;;;;;10.50;7.78;;;;;;;20.12;53.54;100278.59;6010680;23;20027;-87
2021/09/04 09:06:36;;;;;;;14.90;9.25;;;;;;;20.16;53.44;100279.16;6010370;23;20024;-87
2021/09/04 09:09:25;;;;;;;10.27;8.23;;;;;;;20.18;53.43;100274.50;5986330;23;20055;-90
2021/09/04 09:11:54;;;;;;;15.35;8.98;;;;;;;20.25;53.64;100277.47;6010663;23;20027;-91
2021/09/04 09:14:22;;;;;;;12.05;8.90;;;;;;;20.29;53.53;100278.88;5986041;23;20023;-89
2021/09/04 09:16:49;;;;;;;14.05;8.38;;;;;;;20.36;53.40;100273.84;5986279;23;20020;-88
2021/09/04 09:19:16;;;;;;;10.27;8.18;;;;;;;20.41;53.07;100269.75;6010530;23;20032;-89
2021/09/04 09:21:43;;;;;;;12.43;8.57;;;;;;;20.47;53.11;100275.53;5986122;23;20032;-90
2021/09/04 09:24:15;;;;;;;14.60;8.90;;;;;;;20.52;53.19;100265.28;5986078;23;20374;-89
2021/09/04 09:27:00;;;;;;;13.97;10.10;;;;;;;20.55;53.26;100267.66;6010707;23;20318;-89
2021/09/04 09:29:33;;;;;;;12.30;8.55;;;;;;;20.67;52.78;100257.69;5986206;23;20136;-89
2021/09/04 09:32:10;;;;;;;13.27;9.80;;;;;;;20.76;53.21;100259.50;5985948;23;20028;-88
2021/09/04 09:34:38;;;;;;;14.27;10.23;;;;;;;20.86;52.96;100259.47;5986839;23;20528;-88
2021/09/04 09:37:06;;;;;;;12.52;9.80;;;;;;;20.97;52.51;100247.81;6012779;23;20024;-90
2021/09/04 09:39:38;;;;;;;13.77;8.45;;;;;;;21.05;51.96;100252.47;6011741;23;20028;-89
2021/09/04 09:42:06;;;;;;;9.80;7.67;;;;;;;21.15;52.40;100247.09;6012165;23;20389;-90
2021/09/04 09:44:35;;;;;;;8.77;7.50;;;;;;;21.22;51.95;100251.72;5987311;23;20028;-89
2021/09/04 09:47:03;;;;;;;9.98;8.10;;;;;;;21.30;51.71;100242.13;6011655;23;20031;-88
2021/09/04 09:49:38;;;;;;;10.80;8.05;;;;;;;21.37;51.96;100245.88;6012187;23;20084;-89
2021/09/04 09:52:09;;;;;;;11.43;7.90;;;;;;;21.48;51.42;100251.06;5987845;23;20031;-89
2021/09/04 09:54:37;;;;;;;13.35;8.07;;;;;;;21.57;51.85;100246.63;5987244;23;20078;-89
2021/09/04 09:57:09;;;;;;;14.57;8.55;;;;;;;21.65;52.41;100248.59;6012152;23;20031;-89
2021/09/04 09:59:38;;;;;;;8.88;7.68;;;;;;;21.74;52.41;100242.38;5987336;23;20031;-90
2021/09/04 10:02:07;;;;;;;9.35;8.02;;;;;;;21.86;52.00;100242.16;5987508;23;20524;-89
2021/09/04 10:04:35;;;;;;;10.73;8.00;;;;;;;21.95;51.83;100249.34;5987390;23;20032;-89
2021/09/04 10:07:04;;;;;;;8.95;7.40;;;;;;;22.03;51.53;100247.72;5987509;23;20031;-89
2021/09/04 10:09:31;;;;;;;14.30;7.88;;;;;;;22.12;51.13;100252.16;6012364;23;20028;-89
2021/09/04 10:11:59;;;;;;;12.65;8.43;;;;;;;22.21;50.99;100248.56;6012007;23;20032;-88
2021/09/04 10:14:25;;;;;;;10.80;7.70;;;;;;;22.32;51.73;100244.00;6011845;23;20024;-90
2021/09/04 10:16:59;;;;;;;12.45;8.43;;;;;;;22.43;51.55;100245.59;6012134;23;20028;-89
2021/09/04 10:19:29;;;;;;;12.32;8.00;;;;;;;22.57;50.85;100242.41;5987208;23;20322;-87
2021/09/04 10:22:05;;;;;;;11.80;8.32;;;;;;;22.70;50.20;100238.50;5987421;23;20024;-89
2021/09/04 10:24:44;;;;;;;11.30;8.20;;;;;;;22.83;50.45;100243.47;5987313;23;20403;-91
2021/09/04 10:27:12;;;;;;;10.25;7.82;;;;;;;22.95;49.81;100258.31;5987834;23;20088;-91
2021/09/04 10:30:34;;;;;;;10.82;7.88;;;;;;;22.98;50.00;100251.78;5987346;23;20035;-91
2021/09/04 10:33:37;;;;;;;11.57;8.05;;;;;;;23.07;49.34;100255.38;6012474;23;20023;-90
2021/09/04 10:36:29;;;;;;;11.30;7.72;;;;;;;23.20;49.89;100252.25;5860488;23;20397;-91
2021/09/04 10:39:14;;;;;;;10.90;8.02;;;;;;;23.28;49.69;100246.94;6000240;23;20502;-90
2021/09/04 10:41:42;;;;;;;8.45;6.90;;;;;;;23.35;49.65;100239.97;5992803;23;20098;-91
2021/09/04 10:44:10;;;;;;;10.52;7.70;;;;;;;23.45;49.54;100239.84;6015210;23;20075;-91
2021/09/04 10:46:38;;;;;;;10.95;7.72;;;;;;;23.52;48.78;100230.13;6037879;23;20038;-91
2021/09/04 10:49:05;;;;;;;12.10;8.20;;;;;;;23.59;49.60;100230.34;6016327;23;20244;-91
2021/09/04 10:51:50;;;;;;;8.63;7.43;;;;;;;23.63;48.91;100234.38;6014954;23;20019;-91
2021/09/04 10:54:39;;;;;;;10.30;7.60;;;;;;;23.72;50.00;100229.03;6040943;23;20030;-90
2021/09/04 10:57:13;;;;;;;12.02;7.70;;;;;;;23.83;48.44;100228.75;6040315;23;20035;-92
2021/09/04 11:00:00;;;;;;;12.35;8.18;;;;;;;23.92;48.91;100219.69;6039923;23;20031;-90
2021/09/04 11:02:55;;;;;;;10.68;8.15;;;;;;;24.08;48.15;100224.25;6014840;23;20098;-88
2021/09/04 11:05:34;;;;;;;10.88;8.07;;;;;;;24.34;49.11;100217.94;6016058;23;20058;-90
2021/09/04 11:08:05;;;;;;;9.52;7.90;;;;;;;24.70;48.62;100216.78;6015359;23;20030;-92
2021/09/04 11:10:41;;;;;;;9.60;7.05;;;;;;;25.16;49.46;100217.25;6040081;23;20023;-89
2021/09/04 11:13:14;;;;;;;9.80;8.07;;;;;;;25.65;47.62;100221.66;6041100;23;20019;-90
2021/09/04 11:16:29;;;;;;;8.63;7.32;;;;;;;26.34;49.86;100206.59;6040591;23;20034;-90